Time;durP1;ratioP1;P1;durP2;ratioP2;P2;SDS_P1;SDS_P2;PMS_P1;PMS_P2;Temp;Humidity;BMP_temperature;BMP_pressure;BME280_temperature;BME280_humidity;BME280_pressure;Samples;Min_cycle;Max_cycle;Signal;HPM_P1;HPM_P2
2023/05/16 00:02:23;;;;;;;5.33;3.87;;;;;;;;;;5053292;28;20254;-55
2023/05/16 00:04:49;;;;;;;5.00;3.77;;;;;;;;;;5053229;28;20220;-55
2023/05/16 00:07:15;;;;;;;4.37;3.63;;;;;;;;;;5053273;28;20192;-55
2023/05/16 00:09:41;;;;;;;6.57;3.47;;;;;;;;;;5052946;28;20200;-55
2023/05/16 00:12:07;;;;;;;4.23;3.20;;;;;;;;;;5053138;28;20283;-55
2023/05/16 00:14:35;;;;;;;4.67;2.90;;;;;;;;;;5053128;28;20196;-55
2023/05/16 00:17:10;;;;;;;5.60;3.27;;;;;;;;;;5052845;28;20662;-55
2023/05/16 00:19:36;;;;;;;4.00;2.97;;;;;;;;;;5053022;28;20199;-55
2023/05/16 00:22:03;;;;;;;4.90;3.07;;;;;;;;;;5052877;28;20362;-55
2023/05/16 00:24:29;;;;;;;5.10;2.97;;;;;;;;;;5052884;28;20254;-55
2023/05/16 00:26:55;;;;;;;5.20;3.20;;;;;;;;;;5052576;28;20710;-55
2023/05/16 00:29:23;;;;;;;4.40;2.50;;;;;;;;;;5052918;28;20196;-54
2023/05/16 00:31:49;;;;;;;4.33;2.83;;;;;;;;;;5052611;28;20232;-55
2023/05/16 00:34:16;;;;;;;3.33;2.53;;;;;;;;;;5052557;28;20196;-55
2023/05/16 00:36:43;;;;;;;5.07;3.13;;;;;;;;;;5052555;28;20204;-55
2023/05/16 00:39:10;;;;;;;3.77;2.80;;;;;;;;;;5052435;28;20200;-55
2023/05/16 00:41:36;;;;;;;5.37;3.20;;;;;;;;;;5052624;28;20693;-55
2023/05/16 00:44:02;;;;;;;4.63;2.77;;;;;;;;;;5052507;28;20279;-54
2023/05/16 00:46:28;;;;;;;4.20;2.93;;;;;;;;;;5052494;28;20204;-55
2023/05/16 00:48:55;;;;;;;3.97;2.77;;;;;;;;;;5052337;28;20196;-54
2023/05/16 00:51:22;;;;;;;4.00;2.63;;;;;;;;;;5052483;28;20215;-55
2023/05/16 00:53:48;;;;;;;8.37;2.80;;;;;;;;;;5052322;28;20258;-54
2023/05/16 00:56:14;;;;;;;3.93;2.10;;;;;;;;;;5052401;28;20208;-55
2023/05/16 00:58:41;;;;;;;5.63;2.67;;;;;;;;;;5052197;28;20200;-55
2023/05/16 01:01:07;;;;;;;3.40;2.20;;;;;;;;;;5052194;28;20193;-55
2023/05/16 01:03:34;;;;;;;4.67;2.10;;;;;;;;;;5052215;28;20676;-55
2023/05/16 01:06:00;;;;;;;2.67;1.97;;;;;;;;;;5052012;28;20295;-54
2023/05/16 01:08:27;;;;;;;6.43;2.30;;;;;;;;;;5052145;28;20262;-55
2023/05/16 01:10:58;;;;;;;3.30;1.90;;;;;;;;;;5051916;28;20594;-55
2023/05/16 01:13:29;;;;;;;5.27;2.30;;;;;;;;;;5052070;28;20587;-55
2023/05/16 01:15:58;;;;;;;3.33;2.03;;;;;;;;;;5051808;28;20278;-55
2023/05/16 01:18:28;;;;;;;4.47;1.97;;;;;;;;;;5052065;28;20274;-54
2023/05/16 01:20:56;;;;;;;3.77;1.83;;;;;;;;;;5051822;28;20220;-55
2023/05/16 01:23:37;;;;;;;1.90;1.60;;;;;;;;;;5051913;28;20688;-55
2023/05/16 01:26:18;;;;;;;4.03;1.67;;;;;;;;;;5048991;28;20200;-55
2023/05/16 01:28:45;;;;;;;6.50;2.23;;;;;;;;;;5051756;28;20283;-55
2023/05/16 01:31:11;;;;;;;4.43;2.00;;;;;;;;;;5051596;28;20231;-55
2023/05/16 01:33:37;;;;;;;3.63;1.60;;;;;;;;;;5051824;28;20196;-55
2023/05/16 01:36:06;;;;;;;5.03;2.00;;;;;;;;;;5052278;28;20351;-55
2023/05/16 01:38:37;;;;;;;3.33;1.83;;;;;;;;;;5071741;28;20207;-55
2023/05/16 01:41:05;;;;;;;4.07;1.73;;;;;;;;;;5071688;28;20282;-55
2023/05/16 01:43:35;;;;;;;3.53;1.70;;;;;;;;;;5071628;28;20672;-55
2023/05/16 01:46:03;;;;;;;3.43;1.90;;;;;;;;;;5071579;28;20227;-55
2023/05/16 01:48:32;;;;;;;2.57;1.67;;;;;;;;;;5071649;28;20199;-55
2023/05/16 01:50:59;;;;;;;4.80;2.10;;;;;;;;;;5071339;28;20216;-56
2023/05/16 01:53:27;;;;;;;4.80;2.03;;;;;;;;;;5071434;28;20573;-55
2023/05/16 01:55:55;;;;;;;6.40;2.07;;;;;;;;;;5071485;28;20195;-56
2023/05/16 01:58:24;;;;;;;6.03;2.27;;;;;;;;;;5071558;28;20566;-55
2023/05/16 02:00:53;;;;;;;3.93;2.07;;;;;;;;;;5071496;28;20191;-55
2023/05/16 02:03:19;;;;;;;5.53;2.67;;;;;;;;;;5071525;28;20248;-56
2023/05/16 02:05:45;;;;;;;8.37;2.50;;;;;;;;;;5071480;28;20684;-55
2023/05/16 02:08:11;;;;;;;7.03;2.10;;;;;;;;;;5071242;28;20200;-56
2023/05/16 02:10:38;;;;;;;9.00;2.93;;;;;;;;;;5071400;28;20717;-55
2023/05/16 02:13:04;;;;;;;9.07;2.67;;;;;;;;;;5071362;28;20211;-55
2023/05/16 02:15:30;;;;;;;7.70;2.50;;;;;;;;;;5071229;28;20611;-56
2023/05/16 02:17:58;;;;;;;6.37;2.20;;;;;;;;;;5071158;28;20231;-55
2023/05/16 02:20:24;;;;;;;7.97;2.43;;;;;;;;;;5071384;28;20225;-56
2023/05/16 02:22:50;;;;;;;11.33;2.50;;;;;;;;;;5071280;28;20200;-55
2023/05/16 02:25:16;;;;;;;7.63;2.47;;;;;;;;;;5071310;28;20196;-55
2023/05/16 02:27:42;;;;;;;4.43;1.97;;;;;;;;;;5071161;28;20195;-55
2023/05/16 02:30:09;;;;;;;6.27;2.70;;;;;;;;;;5071065;28;20230;-56
2023/05/16 02:32:35;;;;;;;6.83;2.37;;;;;;;;;;5071268;28;20203;-55
2023/05/16 02:35:03;;;;;;;4.07;1.97;;;;;;;;;;5070964;28;20235;-55
2023/05/16 02:37:29;;;;;;;9.90;2.63;;;;;;;;;;5073495;28;20265;-55
2023/05/16 02:39:55;;;;;;;9.47;2.53;;;;;;;;;;5074798;28;20196;-55
2023/05/16 02:42:21;;;;;;;5.87;1.97;;;;;;;;;;5075005;28;20657;-55
2023/05/16 02:44:47;;;;;;;6.37;2.40;;;;;;;;;;5074794;28;20206;-55
2023/05/16 02:47:13;;;;;;;8.10;2.30;;;;;;;;;;5074642;28;20908;-55
2023/05/16 02:49:39;;;;;;;9.40;2.50;;;;;;;;;;5074816;28;20203;-56
2023/05/16 02:52:06;;;;;;;7.87;2.10;;;;;;;;;;5074597;28;20625;-55
2023/05/16 02:54:32;;;;;;;7.13;2.07;;;;;;;;;;5074640;28;20581;-55
2023/05/16 02:56:58;;;;;;;6.93;2.40;;;;;;;;;;5074455;28;20690;-55
2023/05/16 02:59:25;;;;;;;5.07;2.03;;;;;;;;;;5074579;28;20203;-56
2023/05/16 03:01:51;;;;;;;6.93;2.23;;;;;;;;;;5074516;28;20199;-55
2023/05/16 03:04:17;;;;;;;7.83;2.83;;;;;;;;;;5074290;28;20242;-56
2023/05/16 03:06:43;;;;;;;10.17;3.40;;;;;;;;;;5074373;28;20199;-55
2023/05/16 03:09:10;;;;;;;9.83;2.73;;;;;;;;;;5074240;28;20290;-55
2023/05/16 03:11:36;;;;;;;8.37;2.67;;;;;;;;;;5074420;28;20314;-55
2023/05/16 03:14:02;;;;;;;5.57;2.33;;;;;;;;;;5074242;28;20621;-55
2023/05/16 03:16:28;;;;;;;7.67;2.20;;;;;;;;;;5074254;28;20238;-55
2023/05/16 03:18:54;;;;;;;5.80;2.07;;;;;;;;;;5074242;28;20285;-55
2023/05/16 03:21:20;;;;;;;3.97;2.03;;;;;;;;;;5074198;28;20192;-56
2023/05/16 03:23:46;;;;;;;8.17;2.40;;;;;;;;;;5074113;28;20191;-55
2023/05/16 03:26:13;;;;;;;9.67;2.77;;;;;;;;;;5073989;28;20537;-56
2023/05/16 03:28:39;;;;;;;10.20;2.77;;;;;;;;;;5074019;28;20294;-55
2023/05/16 03:31:05;;;;;;;8.33;2.83;;;;;;;;;;5073975;28;20314;-56
2023/05/16 03:33:31;;;;;;;10.00;2.50;;;;;;;;;;5073919;28;20191;-56
2023/05/16 03:35:57;;;;;;;6.27;2.20;;;;;;;;;;5073606;28;20231;-56
2023/05/16 03:38:23;;;;;;;5.23;1.93;;;;;;;;;;5073772;28;20238;-55
2023/05/16 03:40:50;;;;;;;6.27;2.30;;;;;;;;;;5073961;28;20216;-55
2023/05/16 03:43:17;;;;;;;11.03;3.20;;;;;;;;;;5073478;28;20228;-56
2023/05/16 03:45:43;;;;;;;10.17;2.33;;;;;;;;;;5072980;28;20211;-56
2023/05/16 03:48:09;;;;;;;10.33;2.70;;;;;;;;;;5073088;28;20196;-56
2023/05/16 03:50:36;;;;;;;8.37;2.20;;;;;;;;;;5073921;28;20314;-56
2023/05/16 03:53:03;;;;;;;6.40;2.50;;;;;;;;;;5073375;28;20203;-55
2023/05/16 03:55:29;;;;;;;11.10;2.67;;;;;;;;;;5073336;28;20203;-55
2023/05/16 03:57:56;;;;;;;15.37;2.63;;;;;;;;;;5073376;28;20249;-57
2023/05/16 04:00:23;;;;;;;9.27;2.43;;;;;;;;;;5073416;28;20237;-57
2023/05/16 04:02:49;;;;;;;7.10;2.30;;;;;;;;;;5073524;28;20211;-56
2023/05/16 04:05:15;;;;;;;11.47;2.80;;;;;;;;;;5073163;28;20227;-56
2023/05/16 04:07:41;;;;;;;9.53;2.77;;;;;;;;;;5073189;28;20253;-57
2023/05/16 04:10:07;;;;;;;10.03;2.80;;;;;;;;;;5073311;28;20632;-56
2023/05/16 04:12:33;;;;;;;9.87;2.40;;;;;;;;;;5073374;28;20199;-56
2023/05/16 04:14:59;;;;;;;8.70;2.50;;;;;;;;;;5072968;28;20727;-56
2023/05/16 04:17:26;;;;;;;5.37;2.13;;;;;;;;;;5072946;28;20283;-56
2023/05/16 04:19:52;;;;;;;9.40;2.87;;;;;;;;;;5073109;28;20194;-56
2023/05/16 04:22:20;;;;;;;11.63;2.47;;;;;;;;;;5072808;28;20249;-56
2023/05/16 04:24:46;;;;;;;9.97;2.53;;;;;;;;;;5072974;28;20191;-56
2023/05/16 04:27:12;;;;;;;7.73;2.60;;;;;;;;;;5072773;28;20196;-56
2023/05/16 04:29:38;;;;;;;10.43;3.10;;;;;;;;;;5072909;28;20723;-56
2023/05/16 04:32:06;;;;;;;10.57;2.60;;;;;;;;;;5072621;28;20279;-56
2023/05/16 04:34:36;;;;;;;8.73;2.57;;;;;;;;;;5072529;28;20261;-57
2023/05/16 04:37:03;;;;;;;9.47;2.87;;;;;;;;;;5072614;28;20203;-56
2023/05/16 04:39:28;;;;;;;8.17;2.67;;;;;;;;;;5072658;28;20210;-56
2023/05/16 04:41:57;;;;;;;11.03;3.33;;;;;;;;;;5072641;28;20195;-56
2023/05/16 04:44:23;;;;;;;11.90;3.00;;;;;;;;;;5072430;28;20231;-56
2023/05/16 04:46:50;;;;;;;8.50;2.87;;;;;;;;;;5072466;28;20223;-56
2023/05/16 04:49:16;;;;;;;8.17;2.50;;;;;;;;;;5072260;28;20261;-57
2023/05/16 04:51:43;;;;;;;8.53;2.80;;;;;;;;;;5072079;28;20251;-57
2023/05/16 04:54:09;;;;;;;8.83;2.37;;;;;;;;;;5072152;28;20204;-57
2023/05/16 04:56:35;;;;;;;6.03;2.33;;;;;;;;;;5072347;28;20199;-56
2023/05/16 04:59:03;;;;;;;10.50;3.00;;;;;;;;;;5070862;28;20737;-56
2023/05/16 05:01:29;;;;;;;9.80;2.80;;;;;;;;;;5072146;28;20278;-56
2023/05/16 05:03:55;;;;;;;8.60;2.53;;;;;;;;;;5072056;28;20242;-56
2023/05/16 05:06:21;;;;;;;9.30;2.47;;;;;;;;;;5072099;28;20607;-57
2023/05/16 05:08:48;;;;;;;8.77;2.60;;;;;;;;;;5072092;28;20246;-56
2023/05/16 05:11:14;;;;;;;13.67;2.50;;;;;;;;;;5071683;28;20226;-56
2023/05/16 05:13:40;;;;;;;9.10;2.87;;;;;;;;;;5071798;28;20242;-56
2023/05/16 05:16:06;;;;;;;9.53;2.70;;;;;;;;;;5071466;28;20332;-56
2023/05/16 05:18:32;;;;;;;13.83;2.80;;;;;;;;;;5071923;28;20286;-56
2023/05/16 05:20:59;;;;;;;9.17;2.57;;;;;;;;;;5071643;28;20274;-56
2023/05/16 05:23:25;;;;;;;7.53;2.70;;;;;;;;;;5071593;28;20199;-55
2023/05/16 05:25:53;;;;;;;7.97;2.57;;;;;;;;;;5071787;28;20191;-55
2023/05/16 05:28:19;;;;;;;9.57;2.60;;;;;;;;;;5071625;28;20227;-55
2023/05/16 05:30:47;;;;;;;6.33;2.33;;;;;;;;;;5068216;28;20678;-57
2023/05/16 05:33:13;;;;;;;11.23;3.60;;;;;;;;;;5071441;28;20577;-56
2023/05/16 05:35:39;;;;;;;13.73;3.30;;;;;;;;;;5071507;28;20268;-55
2023/05/16 05:38:05;;;;;;;11.03;3.47;;;;;;;;;;5071480;28;20201;-56
2023/05/16 05:40:31;;;;;;;7.90;2.33;;;;;;;;;;5071764;28;20192;-55
2023/05/16 05:42:59;;;;;;;6.23;2.27;;;;;;;;;;5071521;28;20196;-55
2023/05/16 05:45:25;;;;;;;10.10;2.83;;;;;;;;;;5071463;28;20219;-55
2023/05/16 05:47:51;;;;;;;8.43;2.33;;;;;;;;;;5071653;28;20234;-53
2023/05/16 05:50:17;;;;;;;8.07;2.50;;;;;;;;;;5071383;28;20626;-54
2023/05/16 05:52:43;;;;;;;6.57;2.47;;;;;;;;;;5071226;28;20219;-55
2023/05/16 05:55:09;;;;;;;7.60;2.40;;;;;;;;;;5071468;28;20681;-55
2023/05/16 05:57:35;;;;;;;7.67;2.30;;;;;;;;;;5071767;28;20282;-55
2023/05/16 06:00:04;;;;;;;5.50;2.63;;;;;;;;;;5071576;28;20733;-55
2023/05/16 06:02:30;;;;;;;7.87;2.40;;;;;;;;;;5071412;28;20257;-55
2023/05/16 06:04:56;;;;;;;9.67;2.50;;;;;;;;;;5071379;28;20598;-55
2023/05/16 06:07:22;;;;;;;11.17;2.90;;;;;;;;;;5071310;28;20540;-58
2023/05/16 06:09:48;;;;;;;8.33;2.70;;;;;;;;;;5071438;28;20253;-55
2023/05/16 06:12:14;;;;;;;6.17;2.40;;;;;;;;;;5074977;28;20230;-55
2023/05/16 06:14:40;;;;;;;7.27;3.00;;;;;;;;;;5075415;28;20569;-55
2023/05/16 06:17:07;;;;;;;9.07;2.30;;;;;;;;;;5075263;28;20191;-55
2023/05/16 06:19:33;;;;;;;7.33;2.63;;;;;;;;;;5075250;28;20208;-56
2023/05/16 06:21:59;;;;;;;10.83;2.70;;;;;;;;;;5075331;28;20226;-56
2023/05/16 06:24:25;;;;;;;5.17;1.83;;;;;;;;;;5074944;28;20203;-56
2023/05/16 06:26:51;;;;;;;12.33;3.40;;;;;;;;;;5075282;28;20202;-56
2023/05/16 06:29:17;;;;;;;5.03;2.50;;;;;;;;;;5075043;28;20286;-56
2023/05/16 06:31:44;;;;;;;8.77;2.70;;;;;;;;;;5075026;28;20306;-55
2023/05/16 06:34:11;;;;;;;6.20;2.27;;;;;;;;;;5074768;28;20192;-56
2023/05/16 06:36:37;;;;;;;8.73;2.50;;;;;;;;;;5075058;28;20208;-56
2023/05/16 06:39:03;;;;;;;7.50;2.27;;;;;;;;;;5075032;28;20204;-56
2023/05/16 06:41:29;;;;;;;6.80;2.50;;;;;;;;;;5074817;28;20265;-58
2023/05/16 06:43:55;;;;;;;6.87;2.60;;;;;;;;;;5074900;28;20658;-58
2023/05/16 06:46:21;;;;;;;7.63;2.00;;;;;;;;;;5074462;28;20204;-55
2023/05/16 06:48:47;;;;;;;6.17;2.10;;;;;;;;;;5074765;28;20213;-56
2023/05/16 06:51:15;;;;;;;7.13;2.53;;;;;;;;;;5074350;28;20227;-55
2023/05/16 06:53:41;;;;;;;9.57;2.30;;;;;;;;;;5074547;28;20203;-55
2023/05/16 06:56:07;;;;;;;5.97;2.13;;;;;;;;;;5074471;28;20203;-55
2023/05/16 06:58:33;;;;;;;10.17;3.07;;;;;;;;;;5074610;28;20251;-55
2023/05/16 07:00:59;;;;;;;8.93;3.00;;;;;;;;;;5074376;28;20248;-55
2023/05/16 07:03:25;;;;;;;7.10;2.37;;;;;;;;;;5074166;28;20218;-55
2023/05/16 07:05:51;;;;;;;5.67;2.40;;;;;;;;;;5074308;28;20594;-55
2023/05/16 07:08:19;;;;;;;4.60;1.80;;;;;;;;;;5074028;28;20199;-55
2023/05/16 07:10:45;;;;;;;10.80;2.13;;;;;;;;;;5073888;28;20228;-55
2023/05/16 07:13:11;;;;;;;8.13;2.40;;;;;;;;;;5073671;28;20589;-55
2023/05/16 07:15:37;;;;;;;5.70;2.33;;;;;;;;;;5073915;28;20195;-55
2023/05/16 07:18:03;;;;;;;8.90;2.67;;;;;;;;;;5073801;28;20574;-55
2023/05/16 07:20:29;;;;;;;9.47;2.30;;;;;;;;;;5073586;28;20688;-55
2023/05/16 07:22:58;;;;;;;6.67;2.20;;;;;;;;;;5072828;28;20257;-54
2023/05/16 07:25:26;;;;;;;4.93;2.00;;;;;;;;;;5073577;28;20222;-55
2023/05/16 07:27:52;;;;;;;7.67;2.73;;;;;;;;;;5073841;28;20740;-54
2023/05/16 07:30:18;;;;;;;8.33;2.70;;;;;;;;;;5073533;28;20242;-54
2023/05/16 07:32:44;;;;;;;8.17;2.10;;;;;;;;;;5073585;28;20451;-54
2023/05/16 07:35:10;;;;;;;6.40;1.90;;;;;;;;;;5073433;28;20239;-54
2023/05/16 07:37:36;;;;;;;6.20;1.90;;;;;;;;;;5073471;28;20291;-54
2023/05/16 07:40:02;;;;;;;8.23;1.87;;;;;;;;;;5073530;28;20195;-54
2023/05/16 07:42:30;;;;;;;6.93;1.90;;;;;;;;;;5073398;28;20278;-55
2023/05/16 07:44:56;;;;;;;4.30;1.97;;;;;;;;;;5073469;28;20210;-54
2023/05/16 07:47:22;;;;;;;6.90;1.90;;;;;;;;;;5073264;28;20289;-54
2023/05/16 07:49:48;;;;;;;5.63;2.10;;;;;;;;;;5073329;28;20203;-55
2023/05/16 07:52:14;;;;;;;7.23;2.30;;;;;;;;;;5073044;28;20227;-54
2023/05/16 07:54:40;;;;;;;6.73;2.40;;;;;;;;;;5073100;28;20195;-54
2023/05/16 07:57:06;;;;;;;8.00;2.10;;;;;;;;;;5073207;28;20253;-54
2023/05/16 07:59:34;;;;;;;6.97;2.00;;;;;;;;;;5072928;28;20608;-54
2023/05/16 08:02:00;;;;;;;5.17;1.87;;;;;;;;;;5073121;28;20299;-54
2023/05/16 08:04:26;;;;;;;3.87;2.13;;;;;;;;;;5072742;28;20223;-55
2023/05/16 08:06:51;;;;;;;6.20;1.90;;;;;;;;;;5073067;28;20200;-55
2023/05/16 08:09:18;;;;;;;4.07;2.07;;;;;;;;;;5072979;28;20665;-55
2023/05/16 08:11:45;;;;;;;6.80;2.03;;;;;;;;;;5072409;28;20366;-54
2023/05/16 08:14:11;;;;;;;7.40;2.43;;;;;;;;;;5072738;28;20231;-54
2023/05/16 08:16:38;;;;;;;6.03;2.17;;;;;;;;;;5072684;28;20195;-54
2023/05/16 08:19:04;;;;;;;3.93;1.60;;;;;;;;;;5072820;28;20199;-54
2023/05/16 08:21:30;;;;;;;5.80;1.70;;;;;;;;;;5072376;28;20219;-54
2023/05/16 08:23:56;;;;;;;5.17;1.83;;;;;;;;;;5072768;28;20200;-54
2023/05/16 08:26:22;;;;;;;5.37;1.80;;;;;;;;;;5072548;28;20249;-54
2023/05/16 08:28:48;;;;;;;4.73;1.63;;;;;;;;;;5072598;28;20599;-55
2023/05/16 08:31:14;;;;;;;4.43;1.53;;;;;;;;;;5072573;28;20224;-55
2023/05/16 08:33:42;;;;;;;4.27;1.77;;;;;;;;;;5072114;28;20192;-53
2023/05/16 08:36:09;;;;;;;6.17;2.07;;;;;;;;;;5072094;28;20318;-55
2023/05/16 08:38:35;;;;;;;3.60;1.70;;;;;;;;;;5072379;28;20211;-54
2023/05/16 08:41:01;;;;;;;4.67;1.63;;;;;;;;;;5072328;28;20282;-54
2023/05/16 08:43:27;;;;;;;4.03;1.57;;;;;;;;;;5071962;28;20286;-55
2023/05/16 08:45:53;;;;;;;5.50;1.73;;;;;;;;;;5072157;28;20196;-54
2023/05/16 08:48:22;;;;;;;3.77;1.87;;;;;;;;;;5072158;28;20197;-54
2023/05/16 08:50:50;;;;;;;3.63;1.90;;;;;;;;;;5072054;28;20224;-54
2023/05/16 08:53:21;;;;;;;4.77;1.73;;;;;;;;;;5072236;28;20207;-55
2023/05/16 08:55:47;;;;;;;3.73;1.70;;;;;;;;;;5072448;28;20235;-55
2023/05/16 08:58:13;;;;;;;4.60;1.53;;;;;;;;;;5071876;28;20270;-54
2023/05/16 09:00:40;;;;;;;6.00;2.10;;;;;;;;;;5071798;28;20199;-55
2023/05/16 09:03:06;;;;;;;5.97;2.00;;;;;;;;;;5071950;28;20198;-55
2023/05/16 09:05:32;;;;;;;4.27;1.80;;;;;;;;;;5071479;28;20250;-55
2023/05/16 09:08:00;;;;;;;5.00;1.87;;;;;;;;;;5071710;28;20201;-54
2023/05/16 09:10:26;;;;;;;7.60;2.00;;;;;;;;;;5071509;28;20274;-55
2023/05/16 09:12:52;;;;;;;5.33;1.53;;;;;;;;;;5071792;28;20224;-54
2023/05/16 09:15:22;;;;;;;3.67;1.90;;;;;;;;;;5071360;28;20195;-54
2023/05/16 09:17:48;;;;;;;4.00;1.80;;;;;;;;;;5071556;28;20200;-55
2023/05/16 09:20:15;;;;;;;3.23;1.40;;;;;;;;;;5071535;28;20224;-54
2023/05/16 09:22:50;;;;;;;4.40;1.60;;;;;;;;;;5071470;28;20208;-55
2023/05/16 09:25:18;;;;;;;3.40;1.57;;;;;;;;;;5071764;28;20212;-54
2023/05/16 09:27:46;;;;;;;9.63;1.80;;;;;;;;;;5071440;28;20257;-54
2023/05/16 09:30:13;;;;;;;5.07;2.20;;;;;;;;;;5071543;28;20207;-55
2023/05/16 09:32:42;;;;;;;7.23;1.80;;;;;;;;;;5071201;28;20413;-54
2023/05/16 09:35:10;;;;;;;4.23;1.60;;;;;;;;;;5071224;28;20704;-55
2023/05/16 09:37:36;;;;;;;3.50;1.73;;;;;;;;;;5071340;28;20709;-56
2023/05/16 09:40:02;;;;;;;3.27;1.50;;;;;;;;;;5071464;28;20202;-54
2023/05/16 09:42:30;;;;;;;4.10;1.40;;;;;;;;;;5071446;28;20197;-53
2023/05/16 09:44:56;;;;;;;6.57;1.63;;;;;;;;;;5071196;28;20199;-55
2023/05/16 09:47:22;;;;;;;3.40;1.40;;;;;;;;;;5071146;28;20195;-54
2023/05/16 09:49:51;;;;;;;4.03;1.73;;;;;;;;;;5071300;28;20205;-53
2023/05/16 09:52:18;;;;;;;4.07;1.70;;;;;;;;;;5071291;28;20223;-55
2023/05/16 09:54:48;;;;;;;5.20;1.60;;;;;;;;;;5071436;28;20215;-55
2023/05/16 09:57:17;;;;;;;3.80;1.77;;;;;;;;;;5071270;28;20263;-54
2023/05/16 09:59:45;;;;;;;3.93;1.37;;;;;;;;;;5071050;28;20191;-55
2023/05/16 10:02:12;;;;;;;4.57;1.73;;;;;;;;;;5068944;28;20260;-55
2023/05/16 10:04:38;;;;;;;2.57;1.53;;;;;;;;;;5070680;28;20240;-54
2023/05/16 10:07:05;;;;;;;4.60;1.93;;;;;;;;;;5071060;28;20202;-54
2023/05/16 10:09:32;;;;;;;4.50;2.20;;;;;;;;;;5070824;28;20214;-54
2023/05/16 10:12:01;;;;;;;4.37;1.60;;;;;;;;;;5070866;28;20288;-54
2023/05/16 10:14:28;;;;;;;6.63;2.07;;;;;;;;;;5070700;28;20206;-54
2023/05/16 10:16:56;;;;;;;4.97;1.53;;;;;;;;;;5070914;28;20233;-54
2023/05/16 10:19:23;;;;;;;5.63;1.83;;;;;;;;;;5070876;28;20214;-54
2023/05/16 10:21:51;;;;;;;4.47;1.63;;;;;;;;;;5070549;28;20645;-54
2023/05/16 10:24:20;;;;;;;4.03;1.70;;;;;;;;;;5070778;28;20264;-54
2023/05/16 10:26:46;;;;;;;2.50;1.40;;;;;;;;;;5071074;28;20194;-54
2023/05/16 10:29:12;;;;;;;2.40;1.30;;;;;;;;;;5071153;28;20194;-55
2023/05/16 10:31:38;;;;;;;5.83;1.83;;;;;;;;;;5070884;28;20229;-54
2023/05/16 10:34:06;;;;;;;3.73;1.50;;;;;;;;;;5068735;28;20201;-54
2023/05/16 10:36:32;;;;;;;3.67;1.90;;;;;;;;;;5070307;28;20198;-54
2023/05/16 10:38:59;;;;;;;3.43;1.50;;;;;;;;;;5070420;28;20612;-54
2023/05/16 10:41:25;;;;;;;2.43;1.57;;;;;;;;;;5070546;28;20199;-54
2023/05/16 10:43:57;;;;;;;2.50;1.37;;;;;;;;;;5070632;28;20672;-54
2023/05/16 10:46:24;;;;;;;3.37;1.47;;;;;;;;;;5070625;28;20210;-54
2023/05/16 10:48:50;;;;;;;4.27;1.40;;;;;;;;;;5070482;28;20199;-54
2023/05/16 10:51:35;;;;;;;3.23;1.60;;;;;;;;;;5070431;28;20317;-54
2023/05/16 10:54:05;;;;;;;2.83;1.40;;;;;;;;;;5070607;28;20200;-55
2023/05/16 10:56:32;;;;;;;4.30;1.60;;;;;;;;;;5070427;28;20213;-55
2023/05/16 10:58:58;;;;;;;5.87;1.80;;;;;;;;;;5073441;28;20192;-54
2023/05/16 11:01:25;;;;;;;4.63;1.90;;;;;;;;;;5074102;28;20198;-55
2023/05/16 11:04:00;;;;;;;2.67;1.40;;;;;;;;;;5074047;28;20222;-54
2023/05/16 11:06:27;;;;;;;3.20;1.40;;;;;;;;;;5074300;28;20202;-54
2023/05/16 11:09:10;;;;;;;3.23;1.57;;;;;;;;;;5074309;28;20195;-53
2023/05/16 11:11:38;;;;;;;6.50;2.03;;;;;;;;;;5074062;28;20230;-53
2023/05/16 11:14:04;;;;;;;3.80;1.57;;;;;;;;;;5074182;28;20234;-54
2023/05/16 11:16:30;;;;;;;2.00;1.30;;;;;;;;;;5074094;28;20577;-53
2023/05/16 11:19:03;;;;;;;6.00;2.07;;;;;;;;;;5073772;28;20200;-53
2023/05/16 11:21:44;;;;;;;4.27;1.47;;;;;;;;;;5073915;28;20191;-53
2023/05/16 11:24:31;;;;;;;4.83;2.53;;;;;;;;;;5073615;28;20207;-53
2023/05/16 11:26:58;;;;;;;5.57;1.53;;;;;;;;;;5073899;28;20203;-54
2023/05/16 11:29:24;;;;;;;4.20;1.60;;;;;;;;;;5074005;28;20291;-54
2023/05/16 11:31:52;;;;;;;5.27;1.70;;;;;;;;;;5073770;28;20231;-53
2023/05/16 11:34:18;;;;;;;4.27;1.90;;;;;;;;;;5073790;28;20615;-53
2023/05/16 11:36:45;;;;;;;3.70;1.70;;;;;;;;;;5073798;28;20287;-54
2023/05/16 11:39:11;;;;;;;4.50;1.80;;;;;;;;;;5073692;28;20196;-53
2023/05/16 11:41:38;;;;;;;7.43;2.00;;;;;;;;;;5073842;28;20250;-53
2023/05/16 11:44:05;;;;;;;5.83;1.93;;;;;;;;;;5073906;28;20204;-54
2023/05/16 11:46:33;;;;;;;4.50;1.87;;;;;;;;;;5073425;28;20207;-54
2023/05/16 11:48:59;;;;;;;4.50;1.70;;;;;;;;;;5071522;28;20257;-54
2023/05/16 11:51:25;;;;;;;5.30;1.80;;;;;;;;;;5073235;28;20561;-54
2023/05/16 11:53:52;;;;;;;6.67;1.73;;;;;;;;;;5073471;28;20200;-55
2023/05/16 11:56:18;;;;;;;4.17;1.70;;;;;;;;;;5073420;28;20199;-54
2023/05/16 11:58:46;;;;;;;3.13;1.53;;;;;;;;;;5073370;28;20199;-54
2023/05/16 12:01:12;;;;;;;4.83;1.40;;;;;;;;;;5073527;28;20553;-55
2023/05/16 12:03:37;;;;;;;3.43;1.40;;;;;;;;;;5073282;28;20697;-55
2023/05/16 12:06:04;;;;;;;3.90;1.17;;;;;;;;;;5073639;28;20203;-54
2023/05/16 12:08:30;;;;;;;3.67;1.20;;;;;;;;;;5072922;28;20222;-54
2023/05/16 12:10:56;;;;;;;2.70;1.20;;;;;;;;;;5073055;28;20206;-54
2023/05/16 12:13:22;;;;;;;3.93;1.50;;;;;;;;;;5073308;28;20199;-54
2023/05/16 12:15:51;;;;;;;3.13;1.20;;;;;;;;;;5073095;28;20249;-55
2023/05/16 12:18:17;;;;;;;3.13;1.43;;;;;;;;;;5073112;28;20277;-54
2023/05/16 12:20:44;;;;;;;3.10;1.10;;;;;;;;;;5072880;28;20237;-55
2023/05/16 12:23:11;;;;;;;4.23;1.77;;;;;;;;;;5072866;28;20202;-54
2023/05/16 12:25:42;;;;;;;1.83;1.10;;;;;;;;;;5073007;28;20705;-54
2023/05/16 12:28:08;;;;;;;3.67;1.40;;;;;;;;;;5072946;28;20202;-54
2023/05/16 12:30:35;;;;;;;3.80;1.17;;;;;;;;;;5073042;28;20248;-54
2023/05/16 12:33:02;;;;;;;5.07;1.63;;;;;;;;;;5072572;28;20803;-54
2023/05/16 12:35:29;;;;;;;3.90;1.47;;;;;;;;;;5072376;28;20242;-54
2023/05/16 12:37:56;;;;;;;3.93;1.57;;;;;;;;;;5072528;28;20199;-54
2023/05/16 12:40:22;;;;;;;3.43;1.50;;;;;;;;;;5072779;28;20198;-54
2023/05/16 12:42:50;;;;;;;3.63;1.50;;;;;;;;;;5072483;28;20271;-54
2023/05/16 12:45:16;;;;;;;2.27;1.43;;;;;;;;;;5072362;28;20324;-55
2023/05/16 12:47:42;;;;;;;4.77;1.57;;;;;;;;;;5072026;28;20278;-55
2023/05/16 12:50:12;;;;;;;3.03;1.50;;;;;;;;;;5072081;28;20286;-55
2023/05/16 12:52:45;;;;;;;8.03;1.57;;;;;;;;;;5072310;28;20629;-54
2023/05/16 12:55:11;;;;;;;3.73;1.50;;;;;;;;;;5072301;28;20653;-55
2023/05/16 12:57:41;;;;;;;2.30;1.40;;;;;;;;;;5072136;28;20246;-55
2023/05/16 13:00:07;;;;;;;2.70;1.27;;;;;;;;;;5072269;28;20199;-55
2023/05/16 13:02:33;;;;;;;2.83;1.60;;;;;;;;;;5070232;28;20214;-55
2023/05/16 13:04:59;;;;;;;2.77;1.30;;;;;;;;;;5071917;28;20628;-54
2023/05/16 13:07:27;;;;;;;3.60;1.53;;;;;;;;;;5072126;28;20202;-55
2023/05/16 13:09:53;;;;;;;3.67;1.50;;;;;;;;;;5072094;28;20207;-54
2023/05/16 13:12:20;;;;;;;2.23;1.23;;;;;;;;;;5071981;28;20233;-55
2023/05/16 13:14:46;;;;;;;2.60;1.30;;;;;;;;;;5071827;28;20199;-55
2023/05/16 13:17:12;;;;;;;2.83;1.30;;;;;;;;;;5071960;28;20222;-55
2023/05/16 13:19:38;;;;;;;3.53;1.30;;;;;;;;;;5071470;28;20556;-54
2023/05/16 13:22:04;;;;;;;2.53;1.13;;;;;;;;;;5071523;28;20226;-54
2023/05/16 13:24:32;;;;;;;4.40;1.30;;;;;;;;;;5069623;28;20202;-54
2023/05/16 13:26:58;;;;;;;1.97;1.10;;;;;;;;;;5071283;28;20206;-54
2023/05/16 13:29:24;;;;;;;1.57;0.90;;;;;;;;;;5071227;28;20561;-54
2023/05/16 13:31:50;;;;;;;1.93;1.13;;;;;;;;;;5071291;28;20227;-54
2023/05/16 13:34:16;;;;;;;3.73;1.20;;;;;;;;;;5071110;28;20197;-55
2023/05/16 13:36:45;;;;;;;2.90;1.40;;;;;;;;;;5070970;28;20195;-54
2023/05/16 13:39:11;;;;;;;2.07;1.20;;;;;;;;;;5071135;28;20198;-54
2023/05/16 13:41:39;;;;;;;5.67;1.43;;;;;;;;;;5071317;28;20191;-55
2023/05/16 13:44:05;;;;;;;3.13;1.60;;;;;;;;;;5071320;28;20238;-54
2023/05/16 13:46:31;;;;;;;4.07;1.53;;;;;;;;;;5071145;28;20194;-54
2023/05/16 13:48:57;;;;;;;2.00;1.20;;;;;;;;;;5071100;28;20201;-54
2023/05/16 13:51:23;;;;;;;4.07;1.30;;;;;;;;;;5071255;28;20231;-53
2023/05/16 13:53:49;;;;;;;3.43;1.30;;;;;;;;;;5071240;28;20194;-53
2023/05/16 13:56:15;;;;;;;3.50;1.33;;;;;;;;;;5071202;28;20673;-53
2023/05/16 13:58:43;;;;;;;2.67;1.23;;;;;;;;;;5071113;28;20506;-54
2023/05/16 14:01:09;;;;;;;1.73;1.00;;;;;;;;;;5071059;28;20208;-54
2023/05/16 14:03:38;;;;;;;2.70;1.20;;;;;;;;;;5071262;28;20246;-54
2023/05/16 14:06:04;;;;;;;1.97;1.07;;;;;;;;;;5071346;28;20700;-54
2023/05/16 14:08:30;;;;;;;2.57;1.50;;;;;;;;;;5071407;28;20205;-54
2023/05/16 14:10:56;;;;;;;3.63;1.20;;;;;;;;;;5071155;28;20612;-55
2023/05/16 14:13:22;;;;;;;3.70;2.07;;;;;;;;;;5071535;28;20191;-54
2023/05/16 14:15:50;;;;;;;3.77;1.33;;;;;;;;;;5071424;28;20207;-54
2023/05/16 14:18:16;;;;;;;3.87;2.50;;;;;;;;;;5071368;28;20209;-55
2023/05/16 14:20:42;;;;;;;2.87;1.70;;;;;;;;;;5071121;28;20191;-54
2023/05/16 14:23:08;;;;;;;3.17;1.77;;;;;;;;;;5068890;28;20196;-54
2023/05/16 14:25:35;;;;;;;3.77;1.80;;;;;;;;;;5070887;28;20253;-54
2023/05/16 14:28:01;;;;;;;3.80;1.30;;;;;;;;;;5070760;28;20206;-54
2023/05/16 14:30:27;;;;;;;3.47;1.43;;;;;;;;;;5071013;28;20471;-53
2023/05/16 14:32:55;;;;;;;4.33;1.33;;;;;;;;;;5073817;28;20639;-54
2023/05/16 14:35:20;;;;;;;4.97;1.40;;;;;;;;;;5074531;28;20275;-56
2023/05/16 14:37:46;;;;;;;4.00;1.97;;;;;;;;;;5074509;28;20223;-53
2023/05/16 14:40:12;;;;;;;4.73;1.77;;;;;;;;;;5074238;28;20491;-54
2023/05/16 14:42:39;;;;;;;5.03;1.90;;;;;;;;;;5074468;28;20248;-54